Time;durP1;ratioP1;P1;durP2;ratioP2;P2;SDS_P1;SDS_P2;PMS_P1;PMS_P2;Temp;Humidity;BMP_temperature;BMP_pressure;BME280_temperature;BME280_humidity;BME280_pressure;Samples;Min_cycle;Max_cycle;Signal;HPM_P1;HPM_P2
2023/09/22 00:00:35;;;;;;;;;24.00;23.60;;;;;19.85;59.15;98889.69;5050648;28;8857;-71
2023/09/22 00:03:24;;;;;;;;;20.80;20.20;;;;;19.87;59.18;98884.25;5050799;28;8983;-71
2023/09/22 00:05:53;;;;;;;;;19.60;18.20;;;;;20.01;58.06;98885.94;5050183;28;8841;-72
2023/09/22 00:08:22;;;;;;;;;16.80;16.60;;;;;20.05;58.44;98887.47;5049521;28;8917;-72
2023/09/22 00:10:51;;;;;;;;;18.40;17.20;;;;;20.14;58.11;98886.81;5069933;28;8823;-71
2023/09/22 00:13:20;;;;;;;;;18.60;17.40;;;;;20.27;57.62;98887.66;5070325;28;8963;-72
2023/09/22 00:15:51;;;;;;;;;19.20;18.80;;;;;20.31;57.52;98890.94;5035817;28;8850;-72
2023/09/22 00:18:20;;;;;;;;;17.80;17.40;;;;;20.46;57.57;98897.88;5070066;28;8967;-72
2023/09/22 00:20:49;;;;;;;;;19.20;17.40;;;;;20.59;56.43;98889.78;5069986;28;8850;-72
2023/09/22 00:23:18;;;;;;;;;18.60;15.80;;;;;20.61;56.01;98889.69;5033499;28;8863;-72
2023/09/22 00:25:46;;;;;;;;;17.00;16.60;;;;;20.74;55.31;98889.63;5048859;28;8840;-71
2023/09/22 00:28:15;;;;;;;;;17.00;14.40;;;;;20.78;54.33;98883.09;5050695;28;8887;-70
2023/09/22 00:30:44;;;;;;;;;18.40;16.40;;;;;20.87;53.96;98879.75;5048885;28;8870;-72
2023/09/22 00:33:15;;;;;;;;;17.40;13.40;;;;;20.74;53.29;98879.81;5014956;28;9682;-71
2023/09/22 00:35:44;;;;;;;;;20.00;16.80;;;;;20.58;53.74;98880.09;5065216;28;8861;-70
2023/09/22 00:38:13;;;;;;;;;15.60;13.40;;;;;20.65;53.06;98873.34;5050144;28;8833;-72
2023/09/22 00:40:42;;;;;;;;;14.40;13.80;;;;;20.53;53.30;98879.56;5048912;28;8859;-72
2023/09/22 00:43:12;;;;;;;;;13.20;11.20;;;;;20.35;52.56;98872.88;5049916;28;8869;-72
2023/09/22 00:45:43;;;;;;;;;12.80;11.00;;;;;20.23;52.80;98871.97;5049826;28;8853;-73
2023/09/22 00:48:23;;;;;;;;;14.40;12.20;;;;;20.21;52.51;98876.53;5047859;28;8849;-71
2023/09/22 00:50:55;;;;;;;;;12.40;12.00;;;;;20.33;52.75;98880.16;5048284;28;8833;-71
2023/09/22 00:53:25;;;;;;;;;14.40;12.20;;;;;20.45;54.04;98865.94;5048647;28;8841;-72
2023/09/22 00:55:55;;;;;;;;;15.20;13.60;;;;;20.55;53.75;98874.13;5065237;28;8886;-70
2023/09/22 00:58:23;;;;;;;;;11.00;10.80;;;;;20.58;53.22;98873.91;5048239;28;8957;-71
2023/09/22 01:00:53;;;;;;;;;13.60;13.20;;;;;20.59;53.13;98860.41;5049875;28;8860;-70
2023/09/22 01:03:23;;;;;;;;;15.60;13.40;;;;;20.37;52.07;98857.63;5048923;28;8852;-72
2023/09/22 01:05:53;;;;;;;;;13.00;13.00;;;;;19.91;53.93;98861.75;5048350;28;9606;-71
2023/09/22 01:08:22;;;;;;;;;16.00;15.60;;;;;19.69;54.38;98865.09;5047890;28;8879;-72
2023/09/22 01:10:51;;;;;;;;;12.00;9.20;;;;;19.43;54.95;98857.03;5048261;28;8857;-70
2023/09/22 01:13:20;;;;;;;;;12.60;12.40;;;;;19.35;54.85;98856.72;5048350;28;8880;-70
2023/09/22 01:15:49;;;;;;;;;12.20;12.20;;;;;19.20;55.42;98853.28;5047337;28;8938;-72
2023/09/22 01:18:17;;;;;;;;;14.40;11.60;;;;;19.11;54.84;98844.09;5030320;28;8896;-69
2023/09/22 01:20:48;;;;;;;;;13.00;11.80;;;;;19.19;54.95;98842.72;5047678;28;9645;-71
2023/09/22 01:23:18;;;;;;;;;7.60;7.60;;;;;19.27;55.06;98843.03;5064205;28;8853;-72
2023/09/22 01:25:47;;;;;;;;;12.60;9.80;;;;;19.36;53.47;98844.25;5048066;28;8833;-72
2023/09/22 01:28:16;;;;;;;;;8.80;8.80;;;;;19.36;52.99;98842.41;5064076;28;8876;-72
2023/09/22 01:30:45;;;;;;;;;12.40;10.60;;;;;19.36;52.71;98842.41;5047953;28;8853;-72
2023/09/22 01:33:13;;;;;;;;;9.80;8.80;;;;;19.29;52.44;98839.34;5046677;28;8884;-72
2023/09/22 01:35:43;;;;;;;;;10.00;8.20;;;;;19.53;52.02;98838.63;5028670;28;8957;-71
2023/09/22 01:38:14;;;;;;;;;12.60;8.60;;;;;19.62;51.16;98837.97;5044531;28;8863;-71
2023/09/22 01:40:44;;;;;;;;;8.20;8.00;;;;;19.63;51.03;98833.50;5027784;28;8855;-71
2023/09/22 01:43:14;;;;;;;;;10.40;9.40;;;;;19.69;50.44;98830.41;4993565;28;8856;-72
2023/09/22 01:45:43;;;;;;;;;8.00;8.00;;;;;19.75;49.81;98821.97;5009899;28;8856;-71
2023/09/22 01:48:12;;;;;;;;;8.60;7.00;;;;;19.67;49.71;98827.84;5026323;28;9038;-72
2023/09/22 01:50:42;;;;;;;;;7.80;6.20;;;;;19.77;49.13;98814.72;5029622;28;8849;-71
2023/09/22 01:53:12;;;;;;;;;7.60;5.80;;;;;19.89;49.06;98819.16;5029293;28;8850;-70
2023/09/22 01:55:42;;;;;;;;;8.60;7.00;;;;;19.94;48.68;98807.34;5029700;28;8834;-72
2023/09/22 01:58:12;;;;;;;;;8.20;8.20;;;;;19.89;48.39;98811.16;5012831;28;8881;-69
2023/09/22 02:00:41;;;;;;;;;8.60;7.20;;;;;19.85;48.77;98816.84;4996489;28;8854;-71
2023/09/22 02:03:10;;;;;;;;;8.00;8.00;;;;;19.83;48.81;98821.44;4996569;28;9742;-72
2023/09/22 02:05:39;;;;;;;;;9.40;8.20;;;;;19.92;48.19;98817.28;5024486;28;8877;-71
2023/09/22 02:08:09;;;;;;;;;7.00;7.00;;;;;20.00;47.28;98809.56;5026043;28;8837;-70
2023/09/22 02:10:39;;;;;;;;;7.60;7.00;;;;;20.17;47.14;98822.53;5039194;28;8854;-71
2023/09/22 02:13:09;;;;;;;;;11.00;9.00;;;;;20.09;47.17;98816.91;5045746;28;8873;-71
2023/09/22 02:15:40;;;;;;;;;11.60;9.20;;;;;20.42;47.21;98818.09;5046053;28;8846;-72
2023/09/22 02:18:10;;;;;;;;;7.00;6.80;;;;;20.43;46.02;98817.16;5045653;28;9003;-73
2023/09/22 02:20:40;;;;;;;;;8.80;8.00;;;;;20.45;45.49;98820.56;5045421;28;8844;-72
2023/09/22 02:23:09;;;;;;;;;8.00;8.00;;;;;20.56;45.76;98815.28;5063806;28;8852;-73
2023/09/22 02:25:37;;;;;;;;;10.00;8.20;;;;;20.51;45.82;98821.91;5045694;28;8853;-72
2023/09/22 02:28:06;;;;;;;;;5.80;4.20;;;;;20.68;44.99;98826.84;5047021;28;8877;-70
2023/09/22 02:30:37;;;;;;;;;7.00;6.60;;;;;20.85;44.54;98823.75;5048281;28;8861;-70
2023/09/22 02:33:09;;;;;;;;;7.40;7.00;;;;;21.04;44.26;98825.06;5048171;28;9641;-70
2023/09/22 02:35:41;;;;;;;;;7.00;6.80;;;;;21.09;43.45;98822.03;5050649;28;8883;-70
2023/09/22 02:38:10;;;;;;;;;10.60;9.80;;;;;21.19;44.37;98818.56;5052513;28;9715;-72
2023/09/22 02:40:39;;;;;;;;;7.40;7.40;;;;;21.31;43.98;98821.25;5072685;28;8858;-72
2023/09/22 02:43:08;;;;;;;;;6.00;6.00;;;;;21.26;43.46;98826.97;5072352;28;8867;-72
2023/09/22 02:45:39;;;;;;;;;7.40;7.40;;;;;21.33;43.73;98828.19;5037276;28;8846;-71
2023/09/22 02:48:10;;;;;;;;;9.00;8.00;;;;;21.35;44.65;98822.72;5070919;28;8862;-71
2023/09/22 02:50:39;;;;;;;;;7.40;6.40;;;;;21.37;43.22;98824.31;5070469;28;8908;-71
2023/09/22 02:53:08;;;;;;;;;15.60;14.40;;;;;21.26;44.69;98827.81;5071705;28;8863;-71
2023/09/22 02:55:38;;;;;;;;;8.20;8.20;;;;;21.34;43.81;98829.06;5051208;28;8865;-71
2023/09/22 02:58:08;;;;;;;;;9.80;8.80;;;;;21.35;42.46;98828.94;5052056;28;8868;-72
2023/09/22 03:00:38;;;;;;;;;5.60;5.60;;;;;21.35;42.17;98834.28;5050356;28;8849;-71
2023/09/22 03:03:06;;;;;;;;;6.80;5.60;;;;;21.39;42.11;98843.75;5050390;28;8899;-71
2023/09/22 03:05:37;;;;;;;;;7.20;6.00;;;;;21.43;42.24;98847.06;5050603;28;8845;-71
2023/09/22 03:08:06;;;;;;;;;7.20;7.00;;;;;21.34;42.49;98848.59;5017004;28;9003;-73
2023/09/22 03:10:36;;;;;;;;;7.20;6.00;;;;;21.25;43.96;98847.47;5010118;28;8843;-71
2023/09/22 03:13:04;;;;;;;;;6.60;6.40;;;;;21.12;45.15;98848.53;5047418;28;8867;-70
2023/09/22 03:15:35;;;;;;;;;7.80;7.80;;;;;21.05;45.53;98851.69;5048086;28;8853;-72
2023/09/22 03:18:05;;;;;;;;;7.40;6.20;;;;;21.02;46.36;98851.06;5050806;28;8853;-70
2023/09/22 03:20:34;;;;;;;;;7.80;7.80;;;;;20.99;46.64;98848.63;5050394;28;8869;-72
2023/09/22 03:23:04;;;;;;;;;9.20;9.20;;;;;20.94;47.34;98848.13;5051420;28;8987;-71
2023/09/22 03:25:35;;;;;;;;;11.40;9.60;;;;;20.85;48.07;98839.78;4983716;28;8899;-72
2023/09/22 03:28:04;;;;;;;;;12.20;9.60;;;;;20.62;48.80;98838.84;5049724;28;8861;-71
2023/09/22 03:30:34;;;;;;;;;10.80;9.20;;;;;20.54;48.87;98835.03;4980101;28;8886;-70
2023/09/22 03:33:04;;;;;;;;;11.40;8.80;;;;;20.48;48.76;98831.84;5028220;28;8864;-72
2023/09/22 03:35:36;;;;;;;;;10.00;8.60;;;;;20.35;49.16;98832.84;5028850;28;8876;-71
2023/09/22 03:38:09;;;;;;;;;8.80;8.00;;;;;20.29;48.95;98835.03;5028738;28;8893;-72
2023/09/22 03:40:41;;;;;;;;;10.40;9.00;;;;;20.16;48.67;98836.84;4979540;28;8853;-71
2023/09/22 03:43:10;;;;;;;;;9.80;8.00;;;;;19.99;49.32;98835.38;5028703;28;8872;-71
2023/09/22 03:45:39;;;;;;;;;10.80;10.40;;;;;19.98;49.44;98832.81;5031767;28;8934;-71
2023/09/22 03:48:08;;;;;;;;;11.40;9.40;;;;;19.90;49.84;98842.22;5032005;28;9000;-71
2023/09/22 03:50:37;;;;;;;;;15.40;14.00;;;;;19.95;49.71;98841.03;5031843;28;8893;-71
2023/09/22 03:53:07;;;;;;;;;9.60;9.20;;;;;19.89;49.89;98837.84;5031006;28;8908;-72
2023/09/22 03:55:37;;;;;;;;;10.00;7.20;;;;;19.78;49.76;98837.75;5031674;28;8893;-73
2023/09/22 03:58:05;;;;;;;;;10.20;10.00;;;;;19.73;49.53;98836.38;5011005;28;8912;-73
2023/09/22 04:00:34;;;;;;;;;7.20;6.60;;;;;19.70;49.07;98832.94;5028190;28;8873;-70
2023/09/22 04:03:05;;;;;;;;;8.40;8.40;;;;;19.68;49.02;98831.38;5068045;28;8860;-71
2023/09/22 04:05:38;;;;;;;;;8.40;8.00;;;;;19.67;48.88;98832.34;5065808;28;8967;-71
2023/09/22 04:08:08;;;;;;;;;11.40;7.00;;;;;19.67;48.79;98827.84;5049085;28;8837;-71
2023/09/22 04:10:37;;;;;;;;;10.80;7.40;;;;;19.70;48.69;98832.09;5049236;28;8884;-71
2023/09/22 04:13:06;;;;;;;;;7.60;7.60;;;;;19.66;48.77;98831.47;5047537;28;8837;-71
2023/09/22 04:15:35;;;;;;;;;23.00;21.80;;;;;19.57;49.01;98832.09;5029423;28;8839;-72
2023/09/22 04:18:05;;;;;;;;;7.00;7.00;;;;;19.58;49.31;98832.97;5030505;28;9002;-72
2023/09/22 04:20:37;;;;;;;;;7.00;7.00;;;;;19.60;49.08;98836.38;5030662;28;8867;-71
2023/09/22 04:23:06;;;;;;;;;7.60;6.00;;;;;19.60;49.17;98833.72;5030140;28;8856;-73
2023/09/22 04:25:37;;;;;;;;;5.40;5.40;;;;;19.51;49.63;98836.06;5043105;28;8934;-71
2023/09/22 04:28:11;;;;;;;;;7.60;6.20;;;;;19.55;49.47;98842.03;5048985;28;8869;-71
2023/09/22 04:30:40;;;;;;;;;6.80;6.60;;;;;19.63;48.79;98833.50;5049721;28;8938;-72
2023/09/22 04:33:10;;;;;;;;;10.40;8.00;;;;;19.63;48.38;98833.50;5049944;28;8961;-72
2023/09/22 04:35:40;;;;;;;;;15.00;14.80;;;;;19.62;48.25;98835.31;5049760;28;8861;-73
2023/09/22 04:38:10;;;;;;;;;4.60;4.60;;;;;19.58;48.35;98833.81;5049956;28;8845;-71
2023/09/22 04:40:41;;;;;;;;;7.40;7.40;;;;;19.59;48.68;98832.84;5049844;28;8919;-71
2023/09/22 04:43:11;;;;;;;;;9.40;6.20;;;;;19.61;48.41;98840.75;5049790;28;8856;-71
2023/09/22 04:45:41;;;;;;;;;10.00;6.60;;;;;19.59;48.67;98835.50;5049020;28;8930;-71
2023/09/22 04:48:11;;;;;;;;;7.20;6.20;;;;;19.61;49.03;98840.75;5062612;28;8890;-71
2023/09/22 04:50:40;;;;;;;;;15.00;14.40;;;;;19.64;48.87;98835.22;5069541;28;9623;-72
2023/09/22 04:53:08;;;;;;;;;10.20;10.20;;;;;19.63;48.76;98834.38;5067016;28;8973;-71
2023/09/22 04:55:37;;;;;;;;;6.80;5.20;;;;;19.68;48.37;98837.53;5049587;28;8845;-72
2023/09/22 04:58:08;;;;;;;;;10.40;7.00;;;;;19.72;48.43;98835.50;5049022;28;8853;-73
2023/09/22 05:00:38;;;;;;;;;7.60;7.00;;;;;19.79;48.03;98834.13;5053584;28;8864;-72
2023/09/22 05:03:07;;;;;;;;;7.40;6.60;;;;;19.85;48.09;98838.19;5046474;28;8865;-73
2023/09/22 05:05:37;;;;;;;;;13.00;11.80;;;;;19.95;47.20;98827.69;5052904;28;8835;-74
2023/09/22 05:08:07;;;;;;;;;9.80;9.80;;;;;20.03;47.09;98830.69;5068646;28;8866;-74
2023/09/22 05:10:36;;;;;;;;;6.00;6.00;;;;;20.12;46.48;98830.00;5069065;28;8861;-71
2023/09/22 05:13:05;;;;;;;;;8.00;5.20;;;;;20.08;46.26;98833.84;5068902;28;8858;-74
2023/09/22 05:15:35;;;;;;;;;6.40;5.80;;;;;20.24;45.89;98831.00;5084340;28;8854;-77
2023/09/22 05:18:05;;;;;;;;;7.00;6.00;;;;;20.34;45.48;98836.50;5034037;28;8854;-75
2023/09/22 05:20:34;;;;;;;;;6.40;6.00;;;;;20.42;45.38;98832.28;5008664;28;9542;-75
2023/09/22 05:23:04;;;;;;;;;7.20;6.80;;;;;20.52;45.44;98829.81;5068824;28;8877;-78
2023/09/22 05:25:33;;;;;;;;;5.80;5.80;;;;;20.58;45.57;98826.69;5018078;28;8884;-76
2023/09/22 05:28:02;;;;;;;;;6.40;5.80;;;;;20.71;45.09;98825.75;5049845;28;8839;-75
2023/09/22 05:30:31;;;;;;;;;6.20;6.20;;;;;20.77;45.07;98826.16;5066968;28;9607;-75
2023/09/22 05:33:06;;;;;;;;;6.80;6.80;;;;;20.90;44.67;98828.78;5068281;28;8862;-77
2023/09/22 05:35:36;;;;;;;;;6.60;5.80;;;;;21.00;44.99;98826.28;5029564;28;8839;-77
2023/09/22 05:38:05;;;;;;;;;9.00;7.20;;;;;20.98;45.40;98826.41;5068527;28;8951;-74
2023/09/22 05:40:35;;;;;;;;;7.00;7.00;;;;;21.04;45.79;98831.25;5068552;28;9031;-77
2023/09/22 05:43:04;;;;;;;;;10.00;7.40;;;;;21.09;46.14;98833.59;5063416;28;8873;-78
2023/09/22 05:45:34;;;;;;;;;9.80;8.80;;;;;21.00;46.51;98834.31;5049125;28;8972;-76
2023/09/22 05:48:05;;;;;;;;;9.80;8.00;;;;;21.02;46.18;98838.53;5050004;28;8837;-76
2023/09/22 05:50:35;;;;;;;;;9.40;8.80;;;;;21.05;45.80;98827.63;5063283;28;8934;-75
2023/09/22 05:53:05;;;;;;;;;6.00;6.00;;;;;21.06;45.73;98833.81;5047318;28;8968;-77
2023/09/22 05:55:34;;;;;;;;;9.00;8.00;;;;;21.08;45.92;98836.38;5048314;28;8877;-77
2023/09/22 05:58:03;;;;;;;;;8.40;7.00;;;;;21.10;45.24;98827.28;5048367;28;8873;-78
2023/09/22 06:00:34;;;;;;;;;6.00;6.00;;;;;21.10;45.60;98831.78;5047267;28;8841;-75
2023/09/22 06:03:05;;;;;;;;;7.80;7.80;;;;;21.12;45.66;98832.50;5045507;28;8845;-78
2023/09/22 06:05:34;;;;;;;;;7.40;6.40;;;;;21.22;45.20;98829.03;5048256;28;8873;-76
2023/09/22 06:08:05;;;;;;;;;8.00;6.20;;;;;21.31;45.05;98835.47;5038359;28;9617;-77
2023/09/22 06:10:34;;;;;;;;;5.00;5.00;;;;;21.42;45.18;98834.63;5027396;28;8867;-77
2023/09/22 06:13:03;;;;;;;;;6.60;6.20;;;;;21.49;45.12;98835.03;5027959;28;8851;-77
2023/09/22 06:15:33;;;;;;;;;6.40;5.20;;;;;21.51;44.98;98835.75;5028210;28;9642;-77
2023/09/22 06:18:04;;;;;;;;;5.80;5.80;;;;;21.58;44.63;98840.50;5028443;28;8864;-76
2023/09/22 06:20:35;;;;;;;;;6.00;6.00;;;;;21.66;45.10;98844.44;5026808;28;8864;-76
2023/09/22 06:23:04;;;;;;;;;7.00;7.00;;;;;21.72;44.48;98847.47;5037024;28;8846;-78
2023/09/22 06:25:34;;;;;;;;;6.60;6.60;;;;;21.72;44.93;98854.66;5052681;28;9646;-69
2023/09/22 06:28:05;;;;;;;;;6.00;6.00;;;;;21.80;44.84;98850.38;5061553;28;8843;-66
2023/09/22 06:30:35;;;;;;;;;6.00;3.80;;;;;21.94;44.32;98854.66;5066988;28;8993;-67
2023/09/22 06:33:05;;;;;;;;;5.40;5.40;;;;;22.02;44.35;98857.56;5047658;28;8864;-67
2023/09/22 06:35:36;;;;;;;;;4.00;4.00;;;;;22.07;44.31;98853.66;4996949;28;9626;-68
2023/09/22 06:38:06;;;;;;;;;6.20;6.20;;;;;22.15;43.84;98857.44;5047594;28;8912;-66
2023/09/22 06:40:36;;;;;;;;;5.60;5.60;;;;;22.21;43.63;98870.31;5050047;28;8897;-67
2023/09/22 06:43:08;;;;;;;;;7.00;6.20;;;;;22.18;43.82;98864.38;5066965;28;8959;-68
2023/09/22 06:45:51;;;;;;;;;6.00;5.60;;;;;22.34;43.47;98864.88;5061318;28;8858;-67
2023/09/22 06:48:22;;;;;;;;;7.20;6.00;;;;;22.46;43.36;98865.69;5067314;28;8850;-67
2023/09/22 06:50:53;;;;;;;;;6.00;6.00;;;;;22.65;43.17;98872.22;5061273;28;8856;-65
2023/09/22 06:53:22;;;;;;;;;7.40;6.20;;;;;22.73;42.95;98867.97;5059959;28;8931;-65
2023/09/22 06:56:00;;;;;;;;;6.00;5.80;;;;;22.84;42.82;98872.41;5047988;28;8838;-66
2023/09/22 06:58:29;;;;;;;;;5.40;5.00;;;;;22.89;42.38;98877.44;5066924;28;8858;-67
2023/09/22 07:01:07;;;;;;;;;6.40;6.40;;;;;22.99;42.00;98871.16;5047637;28;8843;-67
2023/09/22 07:03:36;;;;;;;;;4.60;4.60;;;;;22.98;42.00;98880.19;5067164;28;8846;-66
2023/09/22 07:06:10;;;;;;;;;5.20;4.20;;;;;23.07;42.00;98872.34;5067410;28;9000;-66
2023/09/22 07:08:39;;;;;;;;;6.00;5.40;;;;;23.13;41.99;98878.06;5066336;28;8908;-65
2023/09/22 07:11:10;;;;;;;;;5.80;5.60;;;;;23.10;42.11;98878.31;5035066;28;9636;-65
2023/09/22 07:13:40;;;;;;;;;4.80;4.80;;;;;23.17;41.80;98882.19;5031874;28;9047;-69
2023/09/22 07:16:10;;;;;;;;;5.80;5.80;;;;;23.32;41.88;98884.56;5048632;28;8862;-65
2023/09/22 07:18:39;;;;;;;;;5.60;5.60;;;;;23.46;41.43;98880.69;5067820;28;8886;-65
2023/09/22 07:21:11;;;;;;;;;6.40;5.80;;;;;23.53;41.29;98887.28;5068891;28;8865;-66
2023/09/22 07:23:39;;;;;;;;;5.40;4.20;;;;;23.60;41.08;98887.56;5070934;28;8870;-66
2023/09/22 07:26:11;;;;;;;;;4.00;4.00;;;;;23.64;40.82;98889.00;5071353;28;8850;-65
2023/09/22 07:28:40;;;;;;;;;7.60;6.40;;;;;23.72;40.75;98892.75;5069861;28;8870;-66
2023/09/22 07:31:12;;;;;;;;;5.20;4.20;;;;;23.90;40.59;98890.31;5071054;28;8939;-66
2023/09/22 07:33:43;;;;;;;;;7.40;7.00;;;;;23.97;40.41;98896.81;5070832;28;8869;-66
2023/09/22 07:36:15;;;;;;;;;8.60;8.60;;;;;23.92;38.81;98887.47;5086746;28;8878;-65
2023/09/22 07:38:44;;;;;;;;;7.20;7.20;;;;;24.01;37.89;98885.81;5071096;28;8869;-67
2023/09/22 07:41:14;;;;;;;;;7.80;7.80;;;;;24.11;36.71;98879.50;5058894;28;8862;-66
2023/09/22 07:43:43;;;;;;;;;8.20;7.20;;;;;24.27;36.53;98883.56;5069843;28;8862;-65
2023/09/22 07:46:12;;;;;;;;;7.20;7.00;;;;;24.28;36.78;98885.25;5052216;28;8998;-64
2023/09/22 07:48:41;;;;;;;;;2.80;1.80;;;;;24.43;37.12;98881.19;5069666;28;8870;-65
2023/09/22 07:51:11;;;;;;;;;17.40;13.00;;;;;24.50;36.99;98878.81;5070735;28;8866;-65
2023/09/22 07:53:41;;;;;;;;;8.20;7.80;;;;;24.65;36.60;98884.63;5070570;28;9600;-66
2023/09/22 07:56:12;;;;;;;;;7.60;7.40;;;;;24.83;36.89;98885.69;5070694;28;8858;-65
2023/09/22 07:58:41;;;;;;;;;7.60;6.80;;;;;24.85;36.46;98886.41;5070555;28;8876;-65
2023/09/22 08:01:15;;;;;;;;;9.00;7.00;;;;;25.05;36.35;98886.41;5070575;28;8842;-65
2023/09/22 08:03:45;;;;;;;;;6.00;6.00;;;;;25.17;36.20;98901.41;5070330;28;8977;-66
2023/09/22 08:06:14;;;;;;;;;6.00;5.00;;;;;25.28;36.10;98893.19;5070579;28;8951;-66
2023/09/22 08:08:45;;;;;;;;;11.20;7.60;;;;;25.26;36.80;98889.78;5070375;28;8854;-65
2023/09/22 08:11:14;;;;;;;;;7.60;7.60;;;;;25.45;35.96;98888.94;5060681;28;8863;-64
2023/09/22 08:13:43;;;;;;;;;7.40;6.00;;;;;25.50;36.16;98893.91;5071381;28;8851;-67
2023/09/22 08:16:12;;;;;;;;;6.00;5.80;;;;;25.54;36.11;98889.09;5070438;28;8838;-64
2023/09/22 08:18:41;;;;;;;;;8.20;7.40;;;;;25.64;35.74;98892.59;5070350;28;8901;-66
2023/09/22 08:21:10;;;;;;;;;9.80;8.40;;;;;25.53;35.77;98896.31;5050715;28;9750;-65
2023/09/22 08:23:40;;;;;;;;;7.80;7.20;;;;;25.68;35.87;98881.41;5068473;28;8896;-64
2023/09/22 08:26:19;;;;;;;;;7.80;6.40;;;;;25.81;35.88;98883.75;5070047;28;8939;-66
2023/09/22 08:28:50;;;;;;;;;9.00;7.00;;;;;25.82;36.15;98881.94;5069180;28;8882;-64
2023/09/22 08:31:19;;;;;;;;;7.80;7.80;;;;;25.90;35.61;98892.84;5065561;28;9004;-64
2023/09/22 08:33:47;;;;;;;;;5.20;5.00;;;;;26.03;35.78;98887.97;5004728;28;8945;-64
2023/09/22 08:36:17;;;;;;;;;6.80;5.00;;;;;26.10;35.70;98888.25;5069405;28;8859;-65
2023/09/22 08:38:47;;;;;;;;;7.40;6.60;;;;;26.22;35.78;98899.66;5070182;28;8959;-64
2023/09/22 08:41:16;;;;;;;;;7.40;6.00;;;;;26.14;35.56;98900.41;5054905;28;8852;-65
2023/09/22 08:43:47;;;;;;;;;10.20;10.20;;;;;26.12;36.12;98890.78;5053052;28;8887;-64
2023/09/22 08:46:18;;;;;;;;;4.80;4.80;;;;;26.23;35.92;98898.66;5052859;28;8892;-65
2023/09/22 08:48:49;;;;;;;;;7.60;7.00;;;;;26.27;35.64;98895.53;5055799;28;8849;-65
2023/09/22 08:51:18;;;;;;;;;7.80;7.20;;;;;25.90;35.11;98887.44;5058474;28;8834;-64
2023/09/22 08:53:47;;;;;;;;;11.40;11.00;;;;;26.12;35.38;98894.31;5066661;28;8909;-64
2023/09/22 08:56:16;;;;;;;;;12.60;12.00;;;;;25.97;35.74;98899.34;5053593;28;8858;-64
2023/09/22 08:58:46;;;;;;;;;10.80;8.20;;;;;26.26;35.25;98885.72;5063720;28;8902;-65
2023/09/22 09:01:15;;;;;;;;;8.40;8.20;;;;;26.41;34.84;98896.03;5063641;28;8876;-64
2023/09/22 09:03:44;;;;;;;;;12.00;12.00;;;;;26.37;34.86;98886.53;5047928;28;8864;-65
2023/09/22 09:06:17;;;;;;;;;14.60;11.00;;;;;26.14;34.41;98895.03;5047075;28;9644;-64
2023/09/22 09:09:05;;;;;;;;;11.40;9.60;;;;;26.16;34.51;98898.41;5046330;28;8865;-64
2023/09/22 09:11:35;;;;;;;;;10.60;9.00;;;;;26.12;35.15;98897.00;5003831;28;8889;-64
2023/09/22 09:14:23;;;;;;;;;12.60;11.40;;;;;26.28;34.76;98894.50;5050570;28;8888;-64
2023/09/22 09:16:52;;;;;;;;;13.80;10.80;;;;;26.50;33.63;98889.75;5068465;28;8893;-64
2023/09/22 09:19:21;;;;;;;;;14.60;10.60;;;;;26.67;33.43;98896.19;5064729;28;8849;-64
2023/09/22 09:22:09;;;;;;;;;13.60;11.00;;;;;26.93;33.06;98880.09;5058482;28;8919;-64
2023/09/22 09:24:38;;;;;;;;;11.40;9.80;;;;;26.83;32.93;98888.28;5049007;28;8873;-65
2023/09/22 09:27:17;;;;;;;;;15.20;11.00;;;;;27.02;33.06;98879.22;5053296;28;8876;-65
2023/09/22 09:29:50;;;;;;;;;5.40;5.20;;;;;27.16;32.95;98875.13;5064190;28;9123;-65
2023/09/22 09:32:24;;;;;;;;;12.40;11.80;;;;;27.33;32.80;98881.50;5061986;28;8857;-65
2023/09/22 09:34:53;;;;;;;;;11.00;10.60;;;;;27.34;32.68;98874.22;5013711;28;8871;-66
2023/09/22 09:37:23;;;;;;;;;12.20;12.00;;;;;27.45;33.33;98879.38;5055845;28;8850;-63
2023/09/22 09:39:53;;;;;;;;;12.00;10.20;;;;;27.48;32.40;98879.09;5054278;28;8874;-64
2023/09/22 09:42:23;;;;;;;;;18.60;15.60;;;;;27.34;32.68;98860.75;5068569;28;8881;-64
2023/09/22 09:44:57;;;;;;;;;15.80;12.80;;;;;27.37;31.54;98866.69;5055964;28;8878;-65
2023/09/22 09:47:30;;;;;;;;;16.40;14.40;;;;;27.00;31.26;98861.44;5055944;28;8874;-64
2023/09/22 09:49:59;;;;;;;;;16.80;14.00;;;;;27.09;31.31;98857.84;5054671;28;8856;-65
2023/09/22 09:52:34;;;;;;;;;10.40;8.60;;;;;27.23;31.29;98862.69;5044911;28;9629;-65
2023/09/22 09:55:12;;;;;;;;;15.20;14.00;;;;;27.24;31.00;98856.28;5063172;28;8859;-63
2023/09/22 09:57:44;;;;;;;;;16.40;14.60;;;;;26.98;31.32;98853.50;5066703;28;9016;-65
2023/09/22 10:00:19;;;;;;;;;12.80;12.20;;;;;27.24;31.74;98860.84;5061093;28;9598;-68
2023/09/22 10:02:50;;;;;;;;;13.80;12.80;;;;;27.15;31.29;98853.69;5051677;28;8845;-64
2023/09/22 10:05:20;;;;;;;;;13.20;13.20;;;;;27.21;31.21;98853.06;5068393;28;8858;-65
2023/09/22 10:07:56;;;;;;;;;12.40;11.40;;;;;27.29;31.32;98857.66;5063241;28;8874;-64
2023/09/22 10:10:26;;;;;;;;;12.60;11.00;;;;;27.12;31.82;98853.97;5065128;28;8888;-66
2023/09/22 10:12:56;;;;;;;;;18.20;16.40;;;;;27.31;31.21;98850.25;5051327;28;9595;-65
2023/09/22 10:15:52;;;;;;;;;18.60;16.20;;;;;27.67;30.86;98844.78;5061287;28;8950;-65
2023/09/22 10:18:22;;;;;;;;;21.80;19.80;;;;;27.53;30.88;98857.00;5005158;28;8960;-64
2023/09/22 10:20:51;;;;;;;;;16.40;15.40;;;;;27.79;31.03;98855.16;5004337;28;8905;-65
2023/09/22 10:23:23;;;;;;;;;15.80;15.80;;;;;27.98;30.92;98845.97;4987981;28;8854;-64
2023/09/22 10:26:14;;;;;;;;;11.40;10.60;;;;;28.18;30.58;98848.47;4954966;28;8912;-65
2023/09/22 10:28:44;;;;;;;;;18.00;14.40;;;;;28.09;30.94;98839.44;4946917;28;8858;-64
2023/09/22 10:31:17;;;;;;;;;17.60;14.00;;;;;28.07;29.67;98846.03;4946481;28;8862;-65
2023/09/22 10:33:47;;;;;;;;;15.60;14.60;;;;;27.93;29.66;98842.94;4947282;28;8846;-64
2023/09/22 10:36:50;;;;;;;;;9.60;8.60;;;;;27.99;29.25;98847.69;4947106;28;8896;-66
2023/09/22 10:39:20;;;;;;;;;16.80;16.00;;;;;27.99;29.41;98849.53;4916414;28;9664;-65
2023/09/22 10:42:01;;;;;;;;;13.20;13.00;;;;;28.17;29.43;98850.31;4947341;28;8882;-64
2023/09/22 10:44:50;;;;;;;;;15.60;14.40;;;;;28.31;29.91;98850.69;4920010;28;8866;-63
2023/09/22 10:47:20;;;;;;;;;14.60;13.60;;;;;28.30;29.94;98840.91;4946541;28;8968;-64
2023/09/22 10:49:49;;;;;;;;;14.00;14.00;;;;;28.44;29.82;98836.72;4946210;28;8910;-64
2023/09/22 10:52:18;;;;;;;;;17.80;14.80;;;;;28.67;29.54;98829.72;4946729;28;9008;-66
2023/09/22 10:54:47;;;;;;;;;15.80;14.40;;;;;28.73;29.22;98820.91;4921511;28;8899;-65
2023/09/22 10:57:27;;;;;;;;;16.40;14.40;;;;;29.06;29.03;98825.50;4999016;28;8866;-66
2023/09/22 10:59:56;;;;;;;;;16.40;13.80;;;;;29.18;28.80;98825.03;5007608;28;8850;-66
2023/09/22 11:02:27;;;;;;;;;13.60;11.40;;;;;29.13;28.31;98831.94;5008558;28;8888;-64
2023/09/22 11:04:59;;;;;;;;;18.80;14.60;;;;;29.41;28.53;98823.47;5011343;28;9653;-66
2023/09/22 11:07:32;;;;;;;;;16.40;14.60;;;;;28.56;28.85;98821.88;5065929;28;8939;-68
2023/09/22 11:10:02;;;;;;;;;16.60;15.60;;;;;28.90;28.90;98829.91;5069701;28;9346;-68
2023/09/22 11:12:32;;;;;;;;;15.00;12.00;;;;;29.17;29.20;98825.19;5070313;28;8894;-67
2023/09/22 11:15:03;;;;;;;;;14.20;13.60;;;;;29.34;28.75;98826.84;5068455;28;8927;-65
2023/09/22 11:17:46;;;;;;;;;16.80;13.80;;;;;29.59;27.60;98799.72;5022336;28;8866;-64
2023/09/22 11:20:22;;;;;;;;;14.80;12.40;;;;;29.65;27.71;98820.72;5069884;28;8885;-65
2023/09/22 11:22:52;;;;;;;;;15.40;14.20;;;;;29.59;27.38;98815.13;5070018;28;8858;-66
2023/09/22 11:25:24;;;;;;;;;16.00;15.00;;;;;29.87;27.12;98816.44;5070591;28;8878;-66
2023/09/22 11:27:54;;;;;;;;;13.20;12.80;;;;;30.15;26.49;98815.97;5070742;28;8892;-66
2023/09/22 11:30:25;;;;;;;;;18.80;17.00;;;;;30.17;26.13;98818.53;5069359;28;8822;-66
2023/09/22 11:32:57;;;;;;;;;19.60;15.20;;;;;30.17;26.64;98808.50;5050851;28;8834;-66
2023/09/22 11:35:37;;;;;;;;;15.20;13.60;;;;;29.66;26.86;98816.97;5069984;28;8843;-68
2023/09/22 11:38:24;;;;;;;;;19.40;19.40;;;;;29.33;28.05;98808.06;5070230;28;8885;-66
2023/09/22 11:41:03;;;;;;;;;13.00;12.00;;;;;29.52;27.45;98793.34;5065709;28;8927;-66
2023/09/22 11:43:32;;;;;;;;;18.20;17.00;;;;;29.59;27.32;98802.44;5069881;28;9019;-69
2023/09/22 11:46:06;;;;;;;;;15.60;11.80;;;;;29.85;27.50;98793.25;5069013;28;8866;-67
2023/09/22 11:49:08;;;;;;;;;16.00;14.00;;;;;30.24;27.04;98793.28;5059647;28;8916;-66
2023/09/22 11:51:43;;;;;;;;;16.80;14.80;;;;;30.00;27.07;98787.94;5007562;28;8846;-67